Date,TemperatureHighF,TemperatureAvgF,TemperatureLowF,DewpointHighF,DewpointAvgF,DewpointLowF,HumidityHigh,HumidityAvg,HumidityLow,PressureMaxIn,PressureMinIn,WindSpeedMaxMPH,WindSpeedAvgMPH,GustSpeedMaxMPH,PrecipitationSumIn
2013-1-1,21.8,14.0,6.0,6.1,0.7,-5.9,67,55,36,30.36,30.15,8,4,13,0.00
2013-1-2,34.8,24.1,12.8,26.3,16.0,4.2,77,71,63,30.27,30.08,11,5,14,0.00
2013-1-3,30.8,23.7,17.1,24.8,15.0,8.6,78,69,54,30.45,30.26,16,7,25,0.00
2013-1-4,37.8,22.3,15.7,20.2,12.8,8.6,77,67,45,30.36,30.19,11,4,11,0.00
2013-1-5,34.4,25.4,19.3,25.3,16.3,10.5,80,68,54,30.25,30.03,20,8,26,0.00
2013-1-6,37.1,21.6,14.3,22.9,12.2,6.7,74,67,51,30.37,30.19,15,6,25,0.00
2013-1-7,41.1,34.5,27.6,27.6,24.3,19.1,81,66,56,30.18,30.00,13,4,15,0.00
2013-1-8,43.4,34.2,26.0,30.9,26.0,20.6,84,72,60,30.18,29.90,13,6,22,0.00
2013-1-9,47.0,37.4,27.8,31.7,27.7,22.4,83,69,54,30.48,30.18,9,4,12,0.00
2013-1-10,40.9,38.2,36.4,36.7,30.3,21.2,99,75,48,30.37,29.75,17,8,26,0.08
2013-1-11,54.0,42.3,28.1,48.5,39.0,19.0,99,89,68,29.80,29.44,18,8,27,0.01
2013-1-12,27.8,19.3,11.0,17.9,3.9,-2.9,66,51,44,30.18,29.80,20,11,32,0.00
2013-1-13,20.9,13.6,7.2,0.8,-2.6,-5.9,60,48,32,30.37,30.17,13,7,20,0.00
2013-1-14,28.7,18.5,8.3,8.5,3.3,-3.7,65,51,37,30.50,30.37,8,3,13,0.00
2013-1-15,35.9,24.9,15.9,14.4,9.2,3.3,65,51,33,30.40,30.09,9,5,17,0.00
2013-1-16,51.2,36.9,22.7,32.8,24.0,12.9,77,60,44,30.28,29.97,18,8,26,0.00
2013-1-17,35.5,30.3,23.4,28.3,24.1,17.7,89,78,58,30.50,30.28,10,3,15,0.00
2013-1-18,53.0,40.3,29.7,32.1,28.6,24.4,88,65,41,30.32,29.93,16,7,21,0.00
2013-1-19,53.0,40.4,21.8,30.1,24.5,4.8,73,55,35,30.38,29.91,25,9,32,0.00
2013-1-20,21.8,17.0,13.9,7.8,2.5,-0.9,62,52,39,30.45,30.36,13,6,20,0.00
2013-1-21,15.3,10.0,4.4,3.3,-10.8,-18.7,60,38,27,30.50,30.38,18,8,26,0.00
2013-1-22,20.7,13.2,8.7,6.4,0.7,-7.3,66,57,42,30.43,30.29,8,4,12,0.00
2013-1-23,29.2,19.0,9.2,14.9,5.1,-8.6,64,54,42,30.55,30.19,17,8,28,0.00
2013-1-24,18.9,10.5,1.7,1.6,-8.2,-14.8,49,42,34,30.60,30.22,17,9,25,0.00
2013-1-25,47.4,29.5,15.7,26.6,12.8,-1.6,70,49,40,30.28,30.15,11,5,15,0.00
2013-1-26,45.8,36.0,15.9,24.7,20.1,3.6,66,53,43,30.30,30.06,20,12,30,0.00
2013-1-27,41.8,38.4,34.4,41.4,35.4,21.9,99,90,51,30.06,29.74,16,8,26,0.20
2013-1-28,45.8,41.0,34.8,45.5,40.5,33.8,99,98,96,29.91,29.61,11,3,14,0.01
2013-1-29,41.8,33.8,30.5,41.3,30.9,27.9,99,89,81,29.75,29.61,14,7,27,0.00
2013-1-30,30.3,22.5,14.8,27.8,13.2,2.0,93,68,49,29.99,29.69,16,9,39,0.00
2013-1-31,14.6,7.1,0.4,2.2,-9.5,-14.9,61,46,33,30.46,29.99,16,8,33,0.00
2013-2-1,26.1,13.2,-1.9,14.1,-0.9,-17.4,63,53,43,30.47,30.09,10,5,22,0.00
2013-2-2,39.3,30.7,24.2,28.6,21.0,13.2,81,67,58,30.24,30.08,10,4,17,0.00
2013-2-3,41.6,33.5,22.4,27.7,20.6,10.4,70,59,45,30.26,29.83,13,5,25,0.00
2013-2-4,36.8,28.5,23.1,28.1,19.4,15.0,80,68,62,30.07,29.81,11,3,22,0.00
2013-2-5,49.4,36.4,25.4,31.5,25.0,20.0,87,65,39,30.12,29.88,11,3,21,0.00
2013-2-6,52.1,41.1,31.4,36.9,30.1,22.6,75,65,52,30.12,29.89,8,3,19,0.00
2013-2-7,42.7,34.6,29.6,34.5,27.1,20.3,82,74,68,30.29,29.92,12,7,27,0.00
2013-2-8,33.3,28.2,25.2,24.3,21.5,18.8,86,76,67,30.39,30.19,11,5,27,0.00
2013-2-9,48.6,36.8,27.9,35.7,29.8,24.3,88,76,59,30.22,29.74,16,9,33,0.00
2013-2-10,47.9,37.1,30.5,44.1,31.2,19.8,99,80,61,29.84,29.34,16,10,38,0.05
2013-2-11,35.7,30.4,24.5,22.5,19.3,16.2,73,63,52,30.21,29.84,15,7,32,0.00
2013-2-12,47.9,33.0,22.0,24.8,19.3,15.9,80,59,34,30.21,29.95,8,3,19,0.00
2013-2-13,53.1,38.1,26.3,28.8,23.5,17.6,75,57,34,29.96,29.77,8,3,15,0.00
2013-2-14,44.5,37.4,24.0,30.4,24.4,7.7,86,61,35,30.31,29.83,13,7,36,0.00
2013-2-15,32.1,23.3,16.2,20.5,10.8,4.3,83,60,36,30.40,30.31,9,5,20,0.00
2013-2-16,31.7,23.0,12.3,21.2,13.7,5.4,76,67,54,30.38,30.06,9,3,19,0.04
2013-2-17,53.9,38.7,25.2,31.8,24.2,15.2,69,57,41,30.06,29.62,12,6,27,0.00
2013-2-18,43.8,32.7,21.1,31.5,21.6,7.5,86,64,49,30.10,29.60,18,9,41,0.01
2013-2-19,25.2,16.8,9.2,9.4,-3.8,-10.4,59,41,24,30.40,30.10,15,8,30,0.00
2013-2-20,25.1,15.8,4.2,2.8,-3.8,-10.5,52,41,31,30.43,30.25,9,5,22,0.00
2013-2-21,24.7,21.6,20.6,18.1,10.0,2.7,85,62,44,30.28,29.88,10,6,27,0.00
2013-2-22,25.1,20.2,13.5,17.1,11.3,4.7,84,69,53,30.07,29.87,9,4,19,0.00
2013-2-23,38.0,22.0,6.9,24.3,11.8,-1.7,74,65,51,30.05,29.88,8,3,19,0.05
2013-2-24,43.8,30.5,20.2,26.5,20.8,14.2,78,68,46,30.11,29.93,5,2,11,0.00
2013-2-25,35.3,30.2,26.9,25.0,23.7,22.5,88,77,62,30.12,29.95,14,7,22,0.00
2013-2-26,32.3,29.0,26.0,27.9,24.2,22.1,87,82,77,29.97,29.83,11,7,26,0.00
2013-2-27,38.2,30.0,24.5,23.8,19.9,15.3,79,66,49,30.13,29.93,16,10,39,0.00
2013-2-28,31.7,27.8,25.1,21.0,18.8,15.2,75,69,63,30.26,30.13,18,8,32,0.00
2013-3-1,28.5,25.6,23.3,17.4,14.0,10.5,71,61,52,30.40,30.25,11,6,24,0.00
2013-3-2,35.3,27.7,20.2,19.8,14.3,10.3,69,57,42,30.39,30.15,6,3,17,0.00
2013-3-3,39.3,32.5,25.8,27.0,21.5,17.1,72,64,55,30.15,29.77,17,8,30,0.00
2013-3-4,44.7,35.9,30.1,28.2,24.7,20.4,80,64,51,30.07,29.73,14,6,30,0.00
2013-3-5,33.0,27.4,23.3,26.9,14.3,9.6,78,57,48,30.42,30.05,18,11,41,0.00
2013-3-6,38.4,27.8,21.1,20.2,15.4,11.5,69,60,43,30.46,30.29,11,5,24,0.00
2013-3-7,49.2,34.7,23.3,27.9,21.4,14.3,69,59,42,30.32,30.14,16,9,32,0.00
2013-3-8,53.9,40.8,30.3,37.6,28.5,21.4,86,62,45,30.23,29.96,17,8,33,0.15
2013-3-9,52.4,45.2,35.9,49.3,41.7,32.7,94,88,79,29.97,29.61,16,7,36,0.22
2013-3-10,35.9,28.5,22.7,32.7,25.3,18.2,94,87,79,29.98,29.71,17,12,36,0.06
2013-3-11,32.8,25.5,21.5,18.5,15.4,11.9,84,66,46,30.05,29.93,10,5,25,0.04
2013-3-12,33.9,29.5,24.7,20.4,18.0,12.1,74,62,53,30.38,30.05,12,7,28,0.00
2013-3-13,36.6,29.0,18.8,19.5,14.8,11.0,72,56,41,30.49,30.29,6,4,17,0.00
2013-3-14,58.7,43.6,31.7,37.0,28.9,19.2,75,57,43,30.29,30.10,7,3,18,0.00
2013-3-15,62.3,46.8,37.1,42.3,36.7,32.6,88,70,42,30.11,29.78,10,4,21,0.00
2013-3-16,39.6,32.6,29.0,36.4,25.1,19.3,90,74,59,30.24,29.91,16,8,38,0.00
2013-3-17,44.3,32.3,23.1,31.1,21.9,14.7,84,66,46,30.20,29.81,16,6,30,0.02
2013-3-18,36.6,33.7,28.8,32.2,17.3,5.0,91,54,27,30.09,29.78,18,8,36,0.05
2013-3-19,50.6,33.4,21.6,21.7,12.5,4.4,55,43,24,30.36,30.09,15,6,32,0.00
2013-3-20,33.5,24.9,18.2,9.9,4.2,-6.9,55,41,26,30.43,30.16,17,7,32,0.00
2013-3-21,32.1,31.4,23.8,14.6,10.2,6.6,49,41,34,30.07,29.97,6,3,18,0.00
2013-3-22,35.0,31.7,25.4,17.0,14.4,12.8,60,49,41,30.07,30.01,4,2,13,0.00
2013-3-23,37.8,31.5,27.8,28.0,22.3,15.7,92,70,46,30.16,30.06,11,5,24,0.06
2013-3-24,28.5,26.4,24.3,24.9,18.3,13.2,90,72,55,30.12,30.06,14,9,35,0.00
2013-3-25,30.1,26.7,23.6,21.3,18.2,14.5,81,70,55,30.38,30.12,13,9,30,0.00
2013-3-26,40.2,28.1,18.0,21.1,14.7,8.7,73,58,43,30.42,30.27,6,3,12,0.00
2013-3-27,52.1,39.1,25.8,29.6,22.6,14.9,67,53,34,30.32,30.22,11,5,26,0.00
2013-3-28,60.3,46.3,29.7,32.8,28.6,23.3,79,53,30,30.30,30.19,5,2,18,0.00
2013-3-29,69.2,53.2,35.0,39.3,32.5,28.4,84,50,22,30.28,30.09,10,4,24,0.00
2013-3-30,67.4,56.3,47.9,53.8,43.5,29.6,99,66,26,30.13,29.94,11,5,32,0.25
2013-3-31,56.7,48.0,32.4,43.0,32.5,19.6,99,61,24,30.19,29.99,15,7,32,0.04
2013-4-1,40.2,32.6,23.3,32.0,17.6,8.9,99,58,28,30.37,30.18,13,6,25,0.01
2013-4-2,53.0,38.0,24.9,23.6,20.0,15.2,71,50,27,30.37,30.27,5,2,14,0.00
2013-4-3,56.2,42.4,31.0,27.4,23.7,20.1,67,49,30,30.40,30.25,8,5,21,0.00
2013-4-4,63.8,48.3,32.6,38.3,31.5,24.7,78,54,36,30.27,30.05,13,4,20,0.30
2013-4-5,68.3,55.2,35.5,40.4,35.5,29.3,79,50,34,30.16,29.73,12,6,28,0.00
2013-4-6,69.9,60.1,52.4,48.1,41.6,37.8,72,52,32,29.79,29.60,13,6,30,0.00
2013-4-7,76.2,58.6,43.8,53.6,43.4,38.5,91,60,28,29.86,29.63,11,3,25,0.04
2013-4-8,68.3,57.7,48.1,61.5,55.0,47.8,99,91,74,29.73,29.62,12,4,28,0.02
2013-4-9,63.8,48.8,35.1,61.7,48.0,34.4,99,97,92,29.94,29.60,16,8,33,0.61
2013-4-10,38.2,35.4,32.6,37.9,34.7,32.3,99,98,97,29.96,29.78,11,7,25,0.45
2013-4-11,35.9,33.1,30.8,33.3,30.7,27.9,99,91,82,29.79,29.65,10,5,24,0.01
2013-4-12,40.9,35.3,32.4,30.6,28.8,25.9,90,77,63,30.00,29.72,11,7,21,0.01
2013-4-13,53.1,41.5,27.9,39.0,32.4,25.1,90,71,55,30.02,29.67,15,5,30,0.00
2013-4-14,68.4,54.1,42.9,53.6,43.6,32.5,92,70,41,29.69,29.34,13,6,30,0.07
2013-4-15,46.7,40.8,34.6,34.7,29.0,21.2,78,63,52,30.10,29.68,9,5,22,0.00
2013-4-16,53.3,43.4,35.5,35.6,30.0,26.1,77,61,36,30.24,30.07,11,6,26,0.00
2013-4-17,46.1,42.0,40.0,42.7,39.5,34.0,99,92,66,30.17,29.62,14,7,32,0.79
2013-4-18,40.0,35.5,0.0,39.7,32.4,20.3,99,88,51,30.06,29.68,18,12,35,0.01
2013-4-19,46.3,37.2,29.0,27.2,21.8,16.9,80,55,33,30.11,29.85,13,9,34,0.00
2013-4-20,47.2,38.4,28.1,28.9,22.1,17.4,78,54,33,30.26,30.11,13,5,28,0.00
2013-4-21,68.1,54.7,44.1,52.1,39.0,28.9,98,58,30,30.17,30.01,16,7,30,0.41
2013-4-22,52.8,44.8,32.8,52.0,44.2,29.4,99,98,87,30.22,29.97,16,5,32,1.07
2013-4-23,39.5,33.4,28.8,29.5,24.1,19.9,88,69,54,30.29,30.17,16,11,36,0.00
2013-4-24,59.3,41.2,26.0,40.9,26.2,20.4,83,60,23,30.24,30.05,15,5,30,0.00
2013-4-25,69.3,52.2,34.6,38.3,32.6,27.5,84,53,23,30.29,30.05,13,5,26,0.00
2013-4-26,70.8,58.6,49.9,52.2,45.2,38.3,93,62,43,30.22,30.07,11,6,30,0.00
2013-4-27,67.9,55.6,44.9,52.8,48.8,44.1,99,80,54,30.25,29.99,6,2,15,0.00
2013-4-28,81.2,64.0,46.5,56.2,49.9,45.6,99,66,30,30.00,29.73,12,5,153,0.00
2013-4-29,85.4,70.0,57.1,58.9,54.4,46.3,95,62,26,29.81,29.57,9,3,17,0.00
2013-4-30,75.8,69.8,59.3,58.1,51.4,44.8,67,52,42,29.93,29.55,12,7,28,0.05
2013-5-1,59.6,42.8,33.0,48.3,38.8,32.5,99,87,59,30.42,29.93,24,12,40,0.65
2013-5-2,48.6,39.7,32.8,33.6,31.0,26.6,98,73,48,30.55,30.41,16,10,33,0.28
2013-5-3,45.0,39.7,32.8,35.5,29.6,26.0,87,67,57,30.41,30.06,16,9,30,0.00
2013-5-4,43.6,39.2,35.0,42.5,38.0,32.9,99,95,84,30.17,30.00,16,10,32,0.02
2013-5-5,53.9,46.6,41.3,49.6,44.9,41.0,99,94,84,30.20,30.13,8,5,22,0.01
2013-5-6,67.4,55.5,47.7,55.1,50.6,47.5,99,85,63,30.19,30.06,6,3,15,0.00
2013-5-7,76.0,63.4,49.4,57.5,52.6,49.1,99,71,43,30.12,29.99,8,2,19,0.00
2013-5-8,70.2,63.7,57.8,59.2,56.8,52.8,91,79,63,30.01,29.94,6,2,17,0.01
2013-5-9,68.6,60.1,55.8,59.7,57.3,55.6,99,91,66,30.03,29.91,10,5,20,0.69
2013-5-10,69.2,58.8,49.7,56.1,48.3,44.8,97,71,43,30.13,30.02,11,5,24,0.00
2013-5-11,60.7,55.7,46.7,48.0,28.9,18.7,75,38,23,30.28,30.06,20,8,33,0.00
2013-5-12,65.9,53.9,38.0,31.6,24.8,19.9,65,34,20,30.32,30.14,5,2,14,0.00
2013-5-13,82.7,66.8,48.3,53.0,42.4,26.7,71,43,24,30.16,29.88,7,3,26,0.00
2013-5-14,100.8,81.1,61.1,62.8,54.1,41.6,84,47,14,29.89,29.67,7,2,32,0.00
2013-5-15,85.5,76.3,64.1,54.3,42.2,34.8,53,31,21,29.97,29.81,10,4,26,0.00
2013-5-16,85.5,74.1,62.9,66.3,56.9,43.8,78,56,35,29.92,29.79,7,2,21,0.00
2013-5-17,86.1,74.7,65.0,65.1,61.5,59.5,88,66,43,29.95,29.85,8,2,20,0.00
2013-5-18,86.1,75.7,62.5,68.0,63.6,59.7,91,68,45,29.94,29.74,14,5,26,0.00
2013-5-19,78.9,66.0,60.5,68.2,62.7,56.6,99,90,64,29.86,29.54,18,3,40,0.69
2013-5-20,76.9,66.8,57.1,59.0,56.3,51.0,99,72,47,29.71,29.54,6,2,26,0.00
2013-5-21,63.8,59.7,54.9,58.6,51.7,46.6,92,76,57,29.77,29.65,6,3,18,0.00
2013-5-22,59.6,55.4,51.5,54.6,50.9,48.9,98,85,71,30.01,29.76,8,4,21,0.00
2013-5-23,73.7,61.2,51.3,53.3,47.8,40.6,98,66,33,30.26,30.01,9,4,22,0.00
2013-5-24,73.5,63.6,51.9,52.5,47.8,44.2,76,58,41,30.32,30.07,13,6,33,0.00
2013-5-25,81.2,67.2,57.1,70.5,60.1,47.0,99,80,53,30.17,30.00,12,5,28,0.27
2013-5-26,82.1,69.3,63.0,72.1,65.8,61.3,99,89,67,30.06,29.86,9,4,21,0.00
2013-5-27,76.0,65.3,36.2,65.4,60.7,20.7,98,86,53,30.07,29.62,16,4,36,0.21
2013-5-28,78.2,69.2,60.9,63.7,61.3,55.6,98,78,46,29.75,29.63,16,2,18,0.12
2013-5-29,73.3,67.2,61.4,67.8,62.5,58.7,95,85,76,29.75,29.57,13,6,30,0.56
2013-5-30,72.6,64.5,59.1,62.2,58.6,52.0,98,82,63,29.67,29.54,11,4,30,0.33
2013-5-31,77.4,67.7,56.0,53.6,50.0,44.6,86,56,33,29.73,29.63,6,2,19,0.00
2013-6-1,63.9,57.1,53.3,52.4,48.5,44.5,88,73,51,30.03,29.68,9,4,18,0.00
2013-6-2,63.2,57.4,50.6,47.5,44.6,41.6,86,64,51,30.13,30.01,8,4,17,0.00
2013-6-3,72.6,64.2,36.2,52.3,47.1,-5.2,85,56,10,30.06,29.84,15,6,27,0.00
2013-6-4,69.0,63.8,29.0,62.7,54.9,26.1,89,73,65,29.99,29.88,7,5,13,0.25
2013-6-5,71.6,64.3,58.0,61.8,51.8,45.9,92,66,43,30.05,29.95,8,3,19,0.00
2013-6-6,71.5,63.6,55.4,55.5,49.6,46.9,77,62,44,30.01,29.95,8,3,19,0.00
2013-6-7,72.5,62.7,53.8,52.1,49.2,47.4,83,63,44,30.05,29.90,9,2,15,0.00
2013-6-8,70.0,61.4,57.2,62.6,55.2,48.3,97,80,64,29.91,29.68,10,5,27,0.87
2013-6-9,67.3,61.8,59.0,60.4,57.9,55.7,97,88,70,29.83,29.71,7,2,20,0.26
2013-6-10,76.1,66.0,57.6,63.2,59.3,55.1,97,80,59,29.91,29.78,9,3,21,0.00
2013-6-11,86.6,75.7,66.8,70.3,64.7,61.1,86,70,44,29.85,29.71,9,3,24,0.00
2013-6-12,88.0,77.2,63.4,69.8,62.9,51.2,77,62,46,30.02,29.68,12,6,30,0.00
2013-6-13,79.7,67.7,57.8,61.0,54.8,50.1,84,65,37,30.11,29.96,5,2,14,0.00
2013-6-14,85.5,73.0,63.7,68.2,64.1,57.0,96,75,55,30.04,29.79,17,6,33,0.63
2013-6-15,79.9,72.6,65.5,68.6,64.0,58.7,95,76,51,29.97,29.83,10,3,22,0.01
2013-6-16,88.2,75.7,66.4,68.6,62.8,53.7,97,68,38,30.00,29.94,5,2,15,0.00
2013-6-17,86.0,78.6,65.7,62.1,56.4,52.9,81,48,34,30.02,29.94,8,2,15,0.00
2013-6-18,80.1,71.2,62.5,64.3,57.0,52.6,94,63,42,30.09,29.97,4,1,13,0.25
2013-6-19,85.5,74.7,63.7,65.4,60.8,55.6,85,63,45,30.02,29.91,11,5,26,0.00
2013-6-20,89.5,83.9,70.2,71.8,69.1,64.8,83,62,48,29.93,29.83,14,8,33,0.00
2013-6-21,91.4,83.9,76.7,72.6,70.0,68.1,78,64,49,29.89,29.78,12,6,32,0.00
2013-6-22,89.8,81.7,70.9,70.4,64.8,56.5,73,57,45,30.01,29.80,15,6,41,0.00
2013-6-23,79.9,73.3,64.4,70.1,66.2,61.8,95,79,63,29.95,29.77,12,3,30,0.31
2013-6-24,80.6,74.6,63.4,70.9,68.3,61.2,95,81,65,30.01,29.74,9,4,28,0.26
2013-6-25,86.0,79.1,69.8,72.8,68.5,63.9,86,71,53,29.83,29.68,12,3,24,0.02
2013-6-26,89.6,81.5,74.0,72.5,66.2,58.7,91,63,36,29.90,29.67,7,3,17,0.00
2013-6-27,80.6,73.9,68.9,69.6,65.6,59.8,92,76,57,30.01,29.89,6,1,17,0.26
2013-6-28,84.6,77.5,70.9,64.4,57.6,52.0,77,52,34,29.99,29.90,12,4,26,0.00
2013-6-29,78.7,72.2,65.2,58.6,55.0,52.6,69,55,43,29.95,29.89,16,5,33,0.00
2013-6-30,68.4,56.4,35.6,55.8,48.7,34.9,99,78,63,29.98,29.72,18,5,27,0.08
2013-7-3,78.8,73.8,68.9,57.8,55.7,53.5,66,54,42,30.00,29.97,4,2,11,0.00
2013-7-4,85.9,74.0,60.7,61.2,56.4,52.7,76,56,36,30.01,29.91,9,4,24,0.00
2013-7-5,84.8,75.3,66.8,64.5,59.9,55.3,71,59,47,29.95,29.87,9,4,28,0.00
2013-7-6,84.2,78.8,74.5,65.8,64.9,64.2,71,63,52,29.89,29.83,11,6,26,0.00
2013-7-7,91.3,81.9,73.3,69.9,65.4,61.0,73,58,44,29.93,29.84,8,3,20,0.00
2013-7-8,91.1,81.9,77.0,72.7,68.9,64.7,72,65,48,29.99,29.92,6,2,17,0.00
2013-7-9,92.7,84.0,75.8,74.6,70.8,66.9,81,65,51,29.97,29.89,7,3,21,0.01
2013-7-10,83.9,77.1,70.7,68.8,63.6,59.8,82,64,46,30.12,29.98,6,3,18,0.00
2013-7-11,84.6,75.3,64.1,63.6,59.9,56.4,84,60,44,30.12,29.99,10,4,24,0.00
2013-7-12,88.0,77.8,67.3,68.6,62.8,57.2,75,60,50,30.03,29.94,13,8,28,0.00
2013-7-13,86.6,78.1,72.0,72.2,65.0,59.3,71,64,56,30.01,29.94,12,8,30,0.00
2013-7-14,85.7,77.3,68.9,65.2,60.6,57.1,73,58,41,30.17,30.00,13,7,35,0.00
2013-7-15,87.1,76.9,66.6,70.4,64.9,60.0,84,67,48,30.22,30.13,8,2,19,0.02
2013-7-16,89.5,77.0,31.7,67.9,65.0,31.4,99,69,44,30.28,29.66,7,1,20,0.00
2013-7-18,90.5,85.8,81.7,67.7,66.3,65.1,59,52,44,29.99,29.96,3,1,12,0.00
2013-7-19,91.3,83.3,76.0,69.8,64.4,59.1,68,54,35,29.98,29.90,4,1,14,0.01
2013-7-20,88.2,78.1,67.5,64.2,60.1,54.4,75,55,35,30.03,29.88,8,2,21,0.00
2013-7-21,88.9,77.7,71.3,74.2,68.1,61.3,94,74,50,29.95,29.80,8,2,19,0.31
2013-7-22,91.8,80.6,69.1,74.7,70.8,62.8,95,74,51,29.88,29.77,6,1,17,0.00
2013-7-23,79.7,72.3,65.5,64.6,61.3,59.7,89,69,56,30.04,29.86,7,2,11,0.04
2013-7-24,82.3,72.1,61.4,62.0,59.2,56.7,87,65,46,30.11,30.02,5,2,14,0.00
2013-7-25,79.9,73.1,68.8,66.9,62.8,59.8,82,70,55,30.07,30.00,5,1,15,0.01
2013-7-26,76.7,70.1,64.1,66.0,57.5,50.4,95,67,43,30.13,29.99,10,4,22,0.00
2013-7-27,72.2,65.0,56.7,52.4,47.8,41.9,79,56,36,30.15,30.03,8,3,21,0.00
2013-7-28,75.8,65.3,52.0,50.3,47.5,42.4,90,55,31,30.09,30.03,5,1,13,0.00
2013-7-29,66.1,61.9,57.6,62.4,56.1,48.2,96,82,60,30.09,30.03,11,3,22,0.09
2013-7-30,73.4,68.1,63.4,65.6,63.6,62.4,99,86,74,30.14,30.04,5,2,14,0.00
2013-7-31,82.8,73.2,63.0,66.8,63.8,61.6,98,74,51,30.17,30.06,4,1,9,0.00
2013-8-1,85.9,74.1,65.0,67.3,63.7,60.4,96,72,44,30.12,29.88,13,2,26,0.21
2013-8-2,83.0,73.7,66.2,68.2,64.4,58.8,94,74,56,30.04,29.86,7,2,20,0.00
2013-8-3,78.7,70.5,63.5,59.0,57.3,55.7,79,64,47,30.20,30.04,8,3,17,0.00
2013-8-4,77.2,69.5,59.8,65.2,58.9,53.7,84,70,54,30.21,30.05,10,4,21,0.00
2013-8-5,83.9,74.7,67.7,72.6,69.1,64.1,94,83,65,30.06,29.86,6,2,19,0.00
2013-8-6,88.2,77.5,66.4,72.5,69.3,63.1,95,77,52,29.97,29.82,7,2,20,0.13
2013-8-7,83.7,76.5,70.4,72.6,63.4,57.4,88,65,44,30.03,29.85,6,2,18,0.00
2013-8-8,76.0,69.9,63.7,64.3,61.5,58.8,86,75,64,30.06,29.98,7,1,14,0.00
2013-8-9,80.1,70.6,63.5,67.6,60.4,56.8,96,71,53,30.17,30.04,7,1,11,0.00
2013-8-10,72.7,61.9,33.1,59.4,56.7,29.3,94,83,61,30.23,29.52,9,1,17,0.00
2013-8-12,84.6,76.3,69.1,68.4,62.5,57.1,87,64,43,30.29,30.21,6,3,21,0.00
2013-8-13,79.2,70.7,62.5,58.4,56.3,53.2,82,62,44,30.39,30.29,5,2,14,0.00
2013-8-14,76.0,67.3,58.5,59.1,55.8,53.1,84,68,51,30.41,30.30,8,2,17,0.01
2013-8-15,65.3,61.4,58.7,59.3,57.6,55.5,97,87,75,30.32,30.25,10,5,24,0.99
2013-8-16,72.5,65.7,60.3,57.9,56.5,54.5,90,73,54,30.39,30.31,9,3,21,0.01
2013-8-17,78.5,69.4,61.0,58.2,56.0,53.0,87,64,45,30.41,30.33,9,3,24,0.00
2013-8-18,79.4,69.6,58.5,60.9,57.6,54.7,90,67,46,30.38,30.26,7,2,21,0.00
2013-8-19,84.4,74.5,63.7,67.9,64.1,59.5,88,71,55,30.29,30.15,8,3,21,0.00
2013-8-20,88.4,78.6,68.8,68.9,66.9,64.6,88,69,51,30.19,30.12,5,3,20,0.00
2013-8-21,90.4,80.0,69.8,70.9,67.8,64.8,85,68,48,30.22,30.16,4,2,17,0.00
2013-8-22,83.7,76.4,70.6,69.6,66.4,63.3,82,72,56,30.32,30.18,9,2,17,0.00
2013-8-23,89.1,78.4,68.8,71.7,67.1,63.9,92,70,44,30.30,30.19,10,4,25,0.00
2013-8-24,90.2,81.1,73.6,71.6,69.3,67.0,82,68,51,30.29,30.21,10,6,33,0.00
2013-8-25,94.3,82.9,72.2,73.1,70.2,67.6,86,67,46,30.34,30.25,8,4,24,0.00
2013-8-26,94.3,83.7,72.5,71.5,69.3,67.6,86,64,46,30.30,30.17,6,2,20,0.00
2013-8-27,95.2,84.3,74.9,70.1,67.7,65.1,74,59,43,30.18,30.11,4,2,22,0.00
2013-8-28,95.2,81.8,69.8,69.7,64.9,62.0,80,58,35,30.22,30.15,6,2,18,0.00
2013-8-29,94.9,82.8,72.4,73.2,69.8,65.6,88,67,42,30.22,30.12,8,3,20,0.00
2013-8-30,95.2,83.9,72.9,75.8,70.5,66.8,83,66,42,30.12,30.04,5,1,15,0.00
2013-8-31,90.5,80.3,72.0,73.1,70.0,65.8,89,72,46,30.11,30.00,5,1,11,0.00
2013-9-1,80.6,74.4,67.5,69.8,62.7,55.6,97,70,43,30.12,29.92,14,3,34,0.45
2013-9-2,78.1,69.1,60.1,60.4,55.6,45.4,93,65,32,30.11,30.00,5,2,14,0.00
2013-9-3,83.0,70.9,57.4,61.4,59.0,55.9,96,69,47,30.11,30.02,6,2,13,0.00
2013-9-4,84.8,74.9,67.7,63.7,61.0,59.0,77,63,42,30.17,30.04,7,2,15,0.00
2013-9-5,80.3,73.3,65.5,68.0,64.3,61.9,96,74,57,30.21,30.08,8,2,18,0.27
2013-9-6,88.6,78.1,68.8,70.4,65.3,60.3,76,65,51,30.11,29.92,10,4,26,0.00
2013-9-7,88.7,78.8,70.7,72.4,68.3,65.0,86,71,48,29.93,29.86,5,2,14,0.00
2013-9-8,90.5,80.0,70.2,74.0,70.9,68.4,94,76,51,29.93,29.80,8,2,18,0.00
2013-9-9,97.2,83.8,74.7,70.9,63.5,57.7,77,53,29,29.87,29.80,6,2,19,0.00
2013-9-10,93.8,78.8,68.9,70.3,63.6,58.7,93,62,38,30.07,29.87,5,2,21,0.26
2013-9-11,81.9,73.7,67.9,72.3,67.9,63.5,98,83,60,30.12,30.05,5,1,15,0.31
2013-9-12,78.8,71.7,64.6,67.6,55.4,45.6,93,59,35,30.24,30.11,6,3,18,0.00
2013-9-13,74.5,64.9,55.3,53.7,50.6,47.8,91,61,42,30.24,30.08,5,1,14,0.00
2013-9-14,75.2,68.0,55.1,54.4,51.7,45.0,71,57,45,30.09,29.88,8,5,22,0.00
2013-9-15,68.4,64.1,61.4,64.7,56.9,51.0,99,78,59,30.24,29.86,9,4,25,0.27
2013-9-16,67.0,60.2,54.2,55.1,52.7,50.2,93,77,63,30.33,30.20,8,3,25,0.00
2013-9-17,71.8,62.6,56.0,67.0,60.5,53.7,99,93,82,30.20,29.89,10,5,21,0.13
2013-9-18,88.9,77.5,65.7,69.7,66.2,64.3,96,71,45,29.91,29.71,8,4,27,0.00
2013-9-19,83.5,71.5,59.6,67.9,61.8,48.3,96,72,53,30.00,29.73,10,3,24,0.20
2013-9-20,68.8,60.0,51.7,51.5,46.3,43.0,81,62,41,30.08,29.97,6,3,13,0.00
2013-9-21,73.1,61.1,47.2,51.8,47.7,43.2,95,64,35,30.04,29.87,7,3,18,0.00
2013-9-22,80.8,66.9,54.7,57.5,51.8,48.0,87,61,33,29.92,29.81,12,5,34,0.00
2013-9-23,76.0,65.6,54.7,54.7,50.7,47.0,83,60,40,29.86,29.74,15,8,40,0.00
2013-9-24,70.7,64.7,60.3,57.7,55.4,51.8,85,72,60,29.91,29.73,13,3,28,0.00
2013-9-25,78.1,67.1,55.4,59.2,56.9,54.3,97,73,47,29.93,29.75,10,4,25,0.00
2013-9-26,84.4,72.5,61.0,61.3,58.6,56.1,90,64,42,29.84,29.75,15,9,34,0.00
2013-9-27,86.6,76.3,69.1,61.2,59.7,56.8,73,58,37,29.87,29.77,14,8,36,0.00
2013-9-28,73.1,62.2,-8.8,64.4,51.1,-10.1,98,69,44,30.06,29.69,11,3,32,0.31
2013-9-29,75.8,61.5,46.8,47.3,44.0,38.8,89,57,27,30.06,29.88,6,2,21,0.00
2013-9-30,79.6,65.4,52.0,53.3,49.5,46.5,86,59,33,29.90,29.72,5,3,21,0.00
2013-10-1,77.8,67.0,55.6,54.3,51.1,45.7,87,60,35,29.95,29.78,5,2,14,0.00
2013-10-2,83.2,74.4,58.0,65.2,61.3,53.4,93,65,47,29.97,29.83,11,3,17,0.00
2013-10-3,80.1,68.7,60.3,64.4,61.3,57.9,98,79,54,29.88,29.73,8,2,20,1.78
2013-10-4,80.3,66.3,53.3,70.8,60.7,40.2,98,83,55,29.90,29.65,10,4,24,0.71
2013-10-5,52.9,46.6,41.4,40.7,34.7,32.5,83,64,50,29.95,29.80,5,3,19,0.00
2013-10-6,48.6,45.0,40.5,46.8,42.8,36.6,98,92,68,29.99,29.75,5,2,17,0.09
2013-10-7,72.4,56.7,41.4,45.2,40.0,32.8,92,58,24,30.08,29.99,4,1,12,0.00
2013-10-8,75.8,62.2,49.0,47.0,43.8,40.9,78,53,32,30.00,29.90,8,4,25,0.00
2013-10-9,75.8,64.0,53.6,52.4,49.2,46.6,79,60,41,30.02,29.94,11,6,30,0.00
2013-10-10,77.8,66.0,55.3,55.4,51.5,47.8,77,61,42,30.00,29.81,13,6,30,0.00
2013-10-11,77.4,65.6,54.5,59.7,49.8,36.8,84,60,24,29.89,29.64,12,6,30,0.00
2013-10-12,65.3,55.7,47.5,42.3,35.6,26.1,75,49,23,30.27,29.90,6,2,12,0.00
2013-10-13,67.3,55.0,41.9,40.6,35.9,29.2,94,53,25,30.41,30.27,8,3,18,0.00
2013-10-14,60.8,53.6,47.5,58.1,44.3,32.2,99,73,46,30.29,29.73,16,8,42,0.84
2013-10-15,57.1,47.5,44.5,54.8,40.6,36.5,92,77,69,30.05,29.80,10,4,24,0.00
2013-10-16,54.7,46.8,42.5,40.0,36.2,25.0,86,68,32,30.07,29.96,4,2,12,0.00
2013-10-17,59.0,46.4,36.9,42.1,37.0,33.3,89,71,46,30.05,29.88,8,3,20,0.00
2013-10-18,49.0,42.1,36.2,37.7,32.6,27.5,86,70,44,30.13,29.99,4,2,9,0.00
2013-10-19,60.1,44.0,32.0,37.3,32.1,28.0,86,65,37,29.99,29.81,6,1,12,0.00
2013-10-20,63.2,51.5,42.1,43.6,38.5,34.3,78,63,37,30.01,29.70,7,2,18,0.00
2013-10-21,51.8,42.2,32.8,38.4,33.7,29.0,87,73,53,30.10,29.93,4,1,11,0.00
2013-10-22,46.8,42.2,37.8,41.2,36.2,31.7,95,79,71,30.11,29.85,9,3,20,0.00
2013-10-23,44.1,38.0,32.6,38.6,34.2,29.8,97,86,75,30.19,30.04,5,1,17,0.02
2013-10-24,46.6,39.0,31.9,34.4,27.2,23.3,83,64,40,30.39,30.19,6,2,12,0.00
2013-10-25,57.6,43.5,29.7,33.3,27.8,22.6,75,56,36,30.39,30.05,5,2,19,0.00
2013-10-26,49.5,44.2,34.7,35.8,31.6,26.3,76,62,45,30.21,30.00,7,3,18,0.00
2013-10-27,67.5,48.0,31.0,37.7,31.2,24.5,79,56,29,30.14,29.83,5,2,18,0.00
2013-10-28,54.5,46.5,39.4,39.0,35.8,33.1,79,67,51,30.18,29.95,11,5,25,0.00
2013-10-29,52.4,46.2,40.7,51.8,44.9,37.7,99,95,76,30.20,29.95,6,2,19,0.25
2013-10-30,58.0,48.4,41.9,57.7,47.8,41.4,99,98,95,29.95,29.76,5,2,14,0.15
2013-10-31,55.4,44.5,37.8,44.6,39.1,36.1,99,83,53,29.77,29.51,6,1,17,0.00
2013-11-1,57.8,46.8,40.7,41.9,38.0,30.7,87,73,37,29.98,29.59,10,4,25,0.00
2013-11-2,55.1,45.1,36.2,38.4,34.6,30.9,86,68,43,30.18,29.97,8,3,21,0.00
2013-11-3,55.8,48.5,38.3,37.5,34.2,31.8,78,59,43,30.09,29.76,14,7,42,0.00
2013-11-4,53.6,49.6,41.8,43.8,38.8,34.6,78,67,53,30.14,29.79,10,3,20,0.00
2013-11-5,44.8,40.6,33.7,44.0,37.6,32.1,99,89,75,30.13,29.81,10,5,24,0.93
2013-11-6,41.6,35.5,32.2,33.8,30.8,28.7,94,83,69,30.26,30.02,9,3,25,0.01
2013-11-7,47.0,36.9,29.2,29.9,24.7,14.2,95,65,28,30.38,30.24,7,2,20,0.00
2013-11-8,62.6,48.0,32.9,38.9,30.8,22.3,67,53,28,30.26,29.74,12,4,33,0.00
2013-11-9,58.9,49.8,42.5,37.0,33.1,30.4,69,53,34,30.33,29.91,7,3,14,0.00
2013-11-10,51.7,43.9,32.6,36.6,29.0,24.3,77,57,37,30.40,30.14,6,2,17,0.00
2013-11-11,46.4,37.3,17.8,41.7,30.0,4.4,93,75,45,30.74,30.09,15,6,30,0.00
2013-11-12,31.9,21.3,12.1,6.0,3.7,-1.1,67,48,24,30.85,30.53,9,2,13,0.00
2013-11-13,52.9,38.8,21.4,27.4,19.9,6.0,59,47,33,30.54,29.99,8,5,22,0.00
2013-11-14,52.0,41.2,32.0,33.4,27.6,21.6,76,59,44,29.99,29.88,5,2,11,0.00
2013-11-15,55.1,42.4,29.7,42.0,33.2,25.7,86,71,48,29.89,29.61,6,3,18,0.00
2013-11-16,64.3,53.7,46.3,53.3,41.4,30.6,94,66,35,29.61,29.32,9,4,24,0.00
2013-11-17,53.5,47.0,39.6,42.9,35.2,31.7,79,64,51,30.05,29.32,9,4,19,0.05
2013-11-18,56.5,44.6,31.9,33.5,24.5,15.1,86,48,21,30.24,30.05,7,1,11,0.00
2013-11-19,60.5,48.2,35.8,31.6,25.5,19.3,67,43,23,30.17,29.88,10,5,28,0.00
2013-11-20,53.5,46.2,37.6,37.5,33.1,27.1,89,61,41,29.93,29.76,11,6,27,0.00
2013-11-21,38.2,28.3,20.3,35.3,22.9,14.8,93,80,64,30.52,29.93,14,9,32,0.00
2013-11-22,28.1,20.9,14.6,16.7,6.7,0.6,83,55,32,30.67,30.52,12,5,25,0.00
2013-11-23,24.7,16.5,11.5,10.5,1.0,-5.8,68,50,32,30.85,30.59,9,4,27,0.00
2013-11-24,29.0,19.4,9.9,12.3,5.6,0.3,66,55,44,30.72,30.20,7,4,18,0.00
2013-11-25,43.0,32.3,24.7,29.0,20.1,9.7,71,60,49,30.20,30.09,7,4,19,0.00
2013-11-26,31.7,26.2,18.4,22.9,10.9,-3.2,75,54,27,30.40,30.17,15,7,30,0.00
2013-11-27,31.3,22.0,11.2,12.5,7.1,2.7,69,53,36,30.39,30.02,8,4,21,0.00
2013-11-28,32.8,27.5,-8.8,20.2,14.7,-12.7,82,58,46,30.47,30.03,12,5,25,0.00
2013-11-29,44.1,30.7,18.9,27.4,19.7,11.4,75,64,49,30.46,30.14,8,3,24,0.00
2013-11-30,56.2,39.9,28.1,32.0,26.6,21.2,75,60,36,30.14,30.04,6,2,13,0.00
2013-12-1,47.0,36.2,27.9,29.0,25.8,22.4,80,67,48,30.15,29.86,4,2,11,0.00
2013-12-2,62.1,49.2,33.8,34.4,32.1,25.9,83,54,32,29.84,29.52,7,2,12,0.00
2013-12-3,41.6,37.8,33.8,35.9,33.3,31.1,94,84,69,29.68,29.49,10,4,22,0.00
2013-12-4,33.8,22.1,14.9,32.4,16.2,2.2,98,79,56,30.04,29.62,13,8,27,0.00
2013-12-5,15.1,10.6,6.7,2.7,-6.5,-17.0,57,46,31,30.40,30.04,14,8,26,0.00
2013-12-6,6.7,5.2,5.2,-12.3,-12.4,-15.8,43,43,34,30.67,30.40,11,6,19,0.00
2013-12-7,11.2,7.7,5.2,-3.0,-10.2,-13.1,53,43,34,30.72,30.43,6,3,17,0.02
2013-12-8,17.3,13.2,10.4,8.8,5.0,-4.9,77,69,47,30.42,30.03,9,4,25,0.00
2013-12-9,11.5,5.4,-1.3,4.5,-8.2,-15.3,76,53,37,30.36,30.11,9,5,17,0.00
2013-12-10,26.5,21.3,11.3,22.3,7.9,-1.2,84,56,37,30.27,30.08,10,4,19,0.00
2013-12-11,27.0,9.5,3.1,22.9,-5.6,-14.6,85,50,34,30.68,30.26,14,6,28,0.00
2013-12-12,32.0,18.4,5.0,18.4,6.7,-7.9,72,60,52,30.48,30.11,5,2,12,0.00
2013-12-13,31.3,24.5,18.7,22.3,17.0,11.6,79,73,66,30.11,29.92,11,3,26,0.00
2013-12-14,20.9,17.6,14.2,14.3,9.0,5.7,76,69,59,30.24,30.10,10,5,26,0.00
2013-12-15,26.5,19.9,14.4,15.9,11.5,6.8,76,69,60,30.19,29.99,5,2,12,0.00
2013-12-16,45.7,27.2,12.2,33.7,20.2,7.0,84,75,59,30.19,30.01,10,3,30,0.00
2013-12-17,40.5,32.9,27.4,27.6,20.8,11.8,90,64,31,30.31,30.14,11,4,28,0.00
2013-12-18,52.2,38.4,27.4,33.6,27.0,18.2,80,64,48,30.14,29.75,6,3,14,0.00
2013-12-19,35.5,29.8,19.1,29.1,24.7,16.7,90,81,72,29.91,29.76,14,6,26,0.00
2013-12-20,18.9,15.1,12.4,16.5,9.5,7.9,90,78,70,30.01,29.90,12,5,24,0.00
2013-12-21,23.5,19.9,16.7,18.6,13.6,8.6,87,76,68,29.93,29.82,10,4,27,0.00
2013-12-22,20.8,15.8,7.5,17.9,6.4,-4.8,91,66,50,30.41,29.89,11,7,24,0.00
2013-12-23,10.4,4.8,-0.4,-4.8,-13.6,-19.4,60,43,25,30.62,30.42,10,5,22,0.00
2013-12-24,24.1,9.4,-1.3,20.5,-1.5,-16.1,87,61,46,30.56,30.16,10,5,27,0.00
2013-12-25,40.6,28.9,20.3,28.8,20.5,15.3,87,71,52,30.33,30.23,15,5,28,0.00
2013-12-26,46.7,33.4,22.8,24.8,20.1,16.1,78,59,36,30.28,30.13,5,2,12,0.00
2013-12-27,61.1,40.0,24.1,32.8,24.4,16.6,75,57,20,30.29,30.11,8,3,17,0.00
2013-12-28,57.5,36.3,14.7,33.0,25.5,3.0,86,67,27,30.16,29.80,21,7,42,0.00
2013-12-29,14.2,7.8,2.6,2.9,-15.0,-22.9,62,36,22,30.41,30.16,19,9,40,0.00
2013-12-30,32.2,15.9,4.4,22.6,-3.0,-18.9,71,44,29,30.31,30.08,14,5,30,0.00
2013-12-31,33.2,16.1,8.4,19.9,6.9,0.3,79,67,50,30.30,30.04,12,5,28,0.00
2014-1-1,9.5,6.7,2.6,1.1,-1.7,-8.7,76,67,57,30.42,30.15,10,7,25,0.00
2014-1-2,9.3,3.4,-0.2,-5.7,-8.6,-11.4,71,57,42,30.48,30.37,6,3,15,0.00